Time;durP1;ratioP1;P1;durP2;ratioP2;P2;SDS_P1;SDS_P2;PMS_P1;PMS_P2;Temp;Humidity;BMP_temperature;BMP_pressure;BME280_temperature;BME280_humidity;BME280_pressure;Samples;Min_cycle;Max_cycle;Signal;HPM_P1;HPM_P2
2022/06/18 00:01:45;;;;;;;14.13;6.43;;;;;;;14.92;100.00;98692.75;5094925;28;20024;-91
2022/06/18 00:04:21;;;;;;;11.68;5.60;;;;;;;15.03;100.00;98689.84;5074716;28;20366;-92
2022/06/18 00:07:11;;;;;;;11.75;5.40;;;;;;;14.93;100.00;98690.97;5061594;28;20109;-91
2022/06/18 00:09:45;;;;;;;9.70;4.57;;;;;;;15.11;100.00;98707.97;5067100;28;20083;-93
2022/06/18 00:15:17;;;;;;;10.10;3.97;;;;;;;14.99;100.00;98703.94;5057403;28;20032;-91
2022/06/18 00:17:44;;;;;;;10.57;4.22;;;;;;;14.98;100.00;98702.22;5056370;28;20102;-92
2022/06/18 00:20:11;;;;;;;10.48;4.00;;;;;;;15.17;100.00;98713.03;5061182;28;20041;-92
2022/06/18 00:22:37;;;;;;;10.48;4.13;;;;;;;15.01;100.00;98708.22;5059133;28;20111;-92
2022/06/18 00:25:15;;;;;;;9.50;4.55;;;;;;;14.96;100.00;98702.28;5054817;28;20159;-91
2022/06/18 00:27:44;;;;;;;9.40;4.70;;;;;;;14.90;100.00;98705.03;5054250;28;20111;-92
2022/06/18 00:30:15;;;;;;;8.73;4.60;;;;;;;14.90;100.00;98710.28;5059393;28;20035;-92
2022/06/18 00:32:41;;;;;;;9.07;4.40;;;;;;;14.87;100.00;98706.91;5052930;28;20100;-92
2022/06/18 00:35:11;;;;;;;8.40;3.78;;;;;;;14.69;100.00;98711.75;5055302;28;20036;-92
2022/06/18 00:37:51;;;;;;;10.05;4.10;;;;;;;14.40;100.00;98699.34;5051127;28;20061;-92
2022/06/18 00:40:42;;;;;;;9.52;3.72;;;;;;;14.17;100.00;98712.13;5055799;28;20025;-91
2022/06/18 00:43:16;;;;;;;8.35;3.42;;;;;;;14.02;100.00;98709.03;5056772;28;20527;-90
2022/06/18 00:45:47;;;;;;;8.68;3.58;;;;;;;13.77;100.00;98704.34;5060001;28;20146;-91
2022/06/18 00:48:49;;;;;;;8.90;3.30;;;;;;;13.66;100.00;98709.84;5054912;28;20118;-90
2022/06/18 00:51:47;;;;;;;8.93;3.20;;;;;;;13.72;100.00;98727.19;5054761;28;20111;-90
2022/06/18 00:54:31;;;;;;;8.77;2.55;;;;;;;13.65;100.00;98727.34;5068689;28;20048;-92
2022/06/18 00:57:17;;;;;;;8.25;2.88;;;;;;;13.70;100.00;98718.50;5057883;28;20059;-92
2022/06/18 00:59:52;;;;;;;6.65;2.28;;;;;;;13.70;100.00;98719.34;5056719;28;20056;-92
2022/06/18 01:02:31;;;;;;;7.90;2.42;;;;;;;13.57;100.00;98715.28;5056348;28;20516;-91
2022/06/18 01:05:00;;;;;;;6.90;2.30;;;;;;;13.53;100.00;98717.13;5055404;28;20028;-91
2022/06/18 01:07:31;;;;;;;6.30;2.15;;;;;;;13.53;100.00;98717.13;5060977;28;20112;-92
2022/06/18 01:10:01;;;;;;;5.97;1.75;;;;;;;13.65;100.00;98709.00;5051252;28;20044;-92
2022/06/18 01:12:33;;;;;;;6.90;1.63;;;;;;;13.62;100.00;98710.81;5053532;28;20492;-91
2022/06/18 01:15:07;;;;;;;5.22;1.40;;;;;;;13.64;100.00;98715.13;5052680;28;20041;-91
2022/06/18 01:17:35;;;;;;;4.97;1.50;;;;;;;13.75;100.00;98712.25;5057042;28;20089;-91
2022/06/18 01:20:09;;;;;;;5.72;1.48;;;;;;;13.75;100.00;98712.25;5067614;28;20024;-92
2022/06/18 01:23:02;;;;;;;6.03;1.58;;;;;;;13.80;100.00;98713.00;5053399;28;20577;-92
2022/06/18 01:25:34;;;;;;;6.77;1.50;;;;;;;13.82;100.00;98713.84;5057912;28;20043;-92
2022/06/18 01:27:59;;;;;;;5.78;1.60;;;;;;;13.76;100.00;98706.09;5065649;28;20558;-93
2022/06/18 01:30:31;;;;;;;5.53;1.50;;;;;;;13.64;100.00;98704.63;5072754;28;20071;-91
2022/06/18 01:33:07;;;;;;;6.88;1.67;;;;;;;13.59;100.00;98706.47;5068137;28;20095;-91
2022/06/18 01:35:37;;;;;;;6.80;1.48;;;;;;;13.51;100.00;98707.56;5056511;28;20120;-94
2022/06/18 01:38:04;;;;;;;5.82;1.50;;;;;;;13.31;100.00;98691.34;5050415;28;20035;-89
2022/06/18 01:40:49;;;;;;;6.15;1.40;;;;;;;13.24;100.00;98687.13;5053114;28;20579;-91
2022/06/18 01:43:18;;;;;;;5.18;1.20;;;;;;;13.14;100.00;98678.59;5054889;28;20497;-91
2022/06/18 01:45:47;;;;;;;4.85;1.48;;;;;;;13.22;100.00;98675.84;5051271;28;20024;-91
2022/06/18 01:48:24;;;;;;;6.32;1.83;;;;;;;13.34;100.00;98671.22;5053151;28;20592;-91
2022/06/18 01:51:02;;;;;;;6.38;1.40;;;;;;;13.42;100.00;98672.81;5043922;28;20120;-89
2022/06/18 01:53:39;;;;;;;7.80;1.58;;;;;;;13.49;100.00;98665.69;5047076;28;20501;-90
2022/06/18 01:56:19;;;;;;;10.57;2.83;;;;;;;13.40;100.00;98668.50;5026541;28;20060;-90
2022/06/18 01:58:50;;;;;;;7.57;1.70;;;;;;;13.38;100.00;98678.16;5026518;28;20025;-90
2022/06/18 02:01:30;;;;;;;5.57;1.40;;;;;;;13.36;100.00;98665.09;5025123;28;20175;-90
2022/06/18 02:04:02;;;;;;;6.40;2.00;;;;;;;13.30;100.00;98662.56;5020709;28;20041;-90
2022/06/18 02:06:34;;;;;;;6.72;1.80;;;;;;;13.39;100.00;98680.75;5025519;28;20049;-90
2022/06/18 02:09:32;;;;;;;9.18;1.55;;;;;;;13.30;100.00;98665.19;5020026;28;20029;-90
2022/06/18 02:12:16;;;;;;;6.10;1.85;;;;;;;13.36;100.00;98675.56;5025413;28;20034;-90
2022/06/18 02:14:47;;;;;;;7.25;2.15;;;;;;;13.41;100.00;98678.09;5024409;28;20037;-90
2022/06/18 02:17:17;;;;;;;18.88;2.75;;;;;;;13.37;100.00;98660.72;5025933;28;20044;-90
2022/06/18 02:20:30;;;;;;;16.38;2.63;;;;;;;13.29;100.00;98668.69;5023866;28;20037;-91
2022/06/18 02:23:09;;;;;;;9.35;2.28;;;;;;;12.77;100.00;98683.72;4968733;28;20128;-90
2022/06/18 02:25:36;;;;;;;9.98;2.20;;;;;;;12.69;100.00;98672.53;4980292;28;20034;-90
2022/06/18 02:28:43;;;;;;;;;;;;;;;;;;;;;
2022/06/18 02:31:16;;;;;;;9.05;2.22;;;;;;;12.72;100.00;98678.56;4984330;28;20044;-91
2022/06/18 02:34:13;;;;;;;8.23;1.83;;;;;;;12.51;100.00;98674.59;4983140;28;20038;-91
2022/06/18 02:36:41;;;;;;;10.05;1.92;;;;;;;12.50;100.00;98674.59;4969597;28;20042;-91
2022/06/18 02:39:20;;;;;;;11.35;2.20;;;;;;;12.60;100.00;98682.25;4979403;28;20034;-92
2022/06/18 02:42:17;;;;;;;10.07;2.10;;;;;;;12.57;100.00;98669.25;4976826;28;20030;-91
2022/06/18 02:44:51;;;;;;;9.80;1.92;;;;;;;12.48;100.00;98664.19;4967583;28;20469;-93
2022/06/18 02:47:20;;;;;;;9.27;1.77;;;;;;;12.54;100.00;98671.94;4970614;28;20092;-91
2022/06/18 02:49:58;;;;;;;8.38;1.60;;;;;;;12.48;100.00;98658.09;4981873;28;20046;-91
2022/06/18 02:52:31;;;;;;;11.45;2.00;;;;;;;12.57;100.00;98658.78;4970340;28;20046;-92
2022/06/18 02:55:19;;;;;;;8.45;2.05;;;;;;;12.54;100.00;98663.19;4984151;28;20041;-91
2022/06/18 02:57:52;;;;;;;8.13;1.80;;;;;;;12.47;100.00;98667.72;5045632;28;20040;-91
2022/06/18 03:00:31;;;;;;;6.93;1.40;;;;;;;12.51;100.00;98671.13;5056055;28;20032;-91
2022/06/18 03:03:01;;;;;;;14.07;2.15;;;;;;;12.50;100.00;98666.75;5056204;28;20066;-90
2022/06/18 03:05:29;;;;;;;10.20;1.73;;;;;;;12.36;100.00;98665.28;5071829;28;20025;-90
2022/06/18 03:07:55;;;;;;;12.05;1.90;;;;;;;12.69;100.00;98677.75;5073671;28;20032;-91
2022/06/18 03:13:18;;;;;;;9.63;1.95;;;;;;;12.64;100.00;98668.25;5053342;28;20043;-90
2022/06/18 03:15:48;;;;;;;10.80;2.05;;;;;;;12.66;100.00;98657.75;5052850;28;20029;-90
2022/06/18 03:18:16;;;;;;;8.50;2.25;;;;;;;12.72;100.00;98665.50;5054716;28;20028;-91
2022/06/18 03:21:17;;;;;;;11.32;2.22;;;;;;;12.88;100.00;98681.75;5065750;28;20008;-91
2022/06/18 03:23:44;;;;;;;13.00;2.42;;;;;;;12.85;100.00;98688.81;5073802;28;20025;-91
2022/06/18 03:27:02;;;;;;;9.90;1.98;;;;;;;12.85;100.00;98684.44;5071104;28;20561;-90
2022/06/18 03:29:29;;;;;;;11.98;2.20;;;;;;;13.00;100.00;98679.78;5052621;28;20033;-91
2022/06/18 03:31:55;;;;;;;10.60;2.10;;;;;;;12.94;100.00;98678.13;5053800;28;20206;-91
2022/06/18 03:34:23;;;;;;;11.60;2.67;;;;;;;12.83;100.00;98675.72;5053633;28;20532;-91
2022/06/18 03:36:49;;;;;;;9.32;1.90;;;;;;;12.81;100.00;98682.75;5056441;28;20054;-92
2022/06/18 03:39:17;;;;;;;12.60;2.22;;;;;;;12.83;100.00;98688.81;5070856;28;20032;-91
2022/06/18 03:41:43;;;;;;;10.95;1.83;;;;;;;12.72;100.00;98682.94;5062681;28;20086;-91
2022/06/18 03:44:08;;;;;;;10.93;1.80;;;;;;;12.80;100.00;98696.72;5057852;28;20471;-91
2022/06/18 03:46:43;;;;;;;10.52;2.40;;;;;;;12.81;100.00;98696.69;5054684;28;20040;-91
2022/06/18 03:49:24;;;;;;;10.90;2.55;;;;;;;12.56;100.00;98708.53;5066835;28;20032;-90
2022/06/18 03:51:50;;;;;;;12.77;2.45;;;;;;;12.51;100.00;98692.91;5065996;28;20036;-91
2022/06/18 03:54:15;;;;;;;12.82;1.90;;;;;;;12.58;100.00;98701.50;5060058;28;20047;-90
2022/06/18 03:56:41;;;;;;;12.07;1.83;;;;;;;12.55;100.00;98702.41;5077459;28;20065;-91
2022/06/18 03:59:10;;;;;;;12.63;2.42;;;;;;;12.38;100.00;98699.25;5064908;28;20520;-91
2022/06/18 04:01:40;;;;;;;12.25;2.10;;;;;;;12.47;100.00;98693.88;5053388;28;21029;-91
2022/06/18 04:04:12;;;;;;;15.18;2.20;;;;;;;12.29;100.00;98667.13;5078949;28;20033;-91
2022/06/18 04:06:40;;;;;;;13.02;2.22;;;;;;;12.26;100.00;98680.28;5058395;28;20040;-90
2022/06/18 04:09:06;;;;;;;11.70;2.13;;;;;;;12.49;100.00;98699.91;5083675;28;20043;-90
2022/06/18 04:11:33;;;;;;;14.95;2.58;;;;;;;12.51;100.00;98692.03;5055650;28;20032;-90
2022/06/18 04:13:59;;;;;;;15.70;1.85;;;;;;;12.57;100.00;98681.47;5072190;28;20024;-91
2022/06/18 04:16:25;;;;;;;14.45;2.00;;;;;;;11.66;100.00;98683.78;5057957;28;20035;-90
2022/06/18 04:18:51;;;;;;;16.02;2.60;;;;;;;11.47;100.00;98701.47;5074574;28;20028;-89
2022/06/18 04:21:17;;;;;;;16.38;2.72;;;;;;;11.95;100.00;98686.00;5063098;28;20047;-90
2022/06/18 04:23:43;;;;;;;13.70;2.80;;;;;;;12.37;100.00;98680.09;5056024;28;20031;-91
2022/06/18 04:26:10;;;;;;;14.82;2.42;;;;;;;12.33;100.00;98685.38;5073559;28;20028;-89
2022/06/18 04:28:37;;;;;;;15.70;2.72;;;;;;;12.29;100.00;98682.81;5063530;28;20032;-88
2022/06/18 04:31:03;;;;;;;12.73;2.60;;;;;;;12.23;100.00;98687.28;5058344;28;20046;-89
2022/06/18 04:33:32;;;;;;;12.35;2.53;;;;;;;12.18;100.00;98692.59;5076666;28;20032;-89
2022/06/18 04:35:58;;;;;;;11.02;2.10;;;;;;;12.23;100.00;98680.31;5064142;28;20020;-89
2022/06/18 04:38:25;;;;;;;16.73;2.28;;;;;;;12.26;100.00;98671.53;5076692;28;20487;-89
2022/06/18 04:40:51;;;;;;;12.43;2.08;;;;;;;12.23;100.00;98667.25;5071175;28;20096;-89
2022/06/18 04:43:17;;;;;;;12.52;2.80;;;;;;;11.33;100.00;98685.09;5060521;28;20111;-89
2022/06/18 04:45:42;;;;;;;14.95;2.75;;;;;;;11.28;100.00;98686.03;5054206;28;20024;-89
2022/06/18 04:48:08;;;;;;;15.52;2.45;;;;;;;11.30;100.00;98693.00;5053770;28;20029;-89
2022/06/18 04:50:37;;;;;;;16.58;2.05;;;;;;;11.32;100.00;98678.19;5058058;28;20034;-90
2022/06/18 04:53:03;;;;;;;13.10;2.50;;;;;;;11.93;100.00;98673.81;5068020;28;20128;-90
2022/06/18 04:55:29;;;;;;;12.68;2.03;;;;;;;12.11;100.00;98668.31;5060019;28;20056;-90
2022/06/18 04:57:54;;;;;;;13.73;2.13;;;;;;;12.12;100.00;98670.03;5060544;28;20041;-90
2022/06/18 05:00:20;;;;;;;12.13;2.17;;;;;;;12.29;100.00;98672.38;5051494;28;20062;-90
2022/06/18 05:02:46;;;;;;;16.23;2.38;;;;;;;12.24;100.00;98662.88;5052129;28;20028;-90
2022/06/18 05:05:21;;;;;;;13.55;2.28;;;;;;;12.30;100.00;98662.75;5061783;28;20441;-90
2022/06/18 05:07:47;;;;;;;18.08;2.83;;;;;;;11.39;100.00;98687.66;5051679;28;20057;-90
2022/06/18 05:10:14;;;;;;;16.30;2.42;;;;;;;11.34;100.00;98679.00;5051701;28;20036;-89
2022/06/18 05:12:40;;;;;;;16.90;2.67;;;;;;;11.27;100.00;98673.00;5054593;28;20090;-90
2022/06/18 05:15:08;;;;;;;13.52;2.67;;;;;;;11.12;100.00;98668.88;5050700;28;20502;-90
2022/06/18 05:17:36;;;;;;;13.95;2.30;;;;;;;11.09;100.00;98667.16;5071977;28;20081;-90
2022/06/18 05:20:03;;;;;;;16.48;2.30;;;;;;;11.03;100.00;98668.97;5070126;28;20038;-91
2022/06/18 05:22:28;;;;;;;13.63;2.08;;;;;;;11.04;100.00;98676.78;5054480;28;20751;-90
2022/06/18 05:24:54;;;;;;;12.05;2.35;;;;;;;11.59;100.00;98679.53;5045659;28;20024;-90
2022/06/18 05:27:25;;;;;;;18.75;2.75;;;;;;;11.66;100.00;98683.78;5058207;28;20036;-90
2022/06/18 05:29:51;;;;;;;15.68;2.35;;;;;;;12.06;100.00;98690.19;5076133;28;20391;-89
2022/06/18 05:32:16;;;;;;;13.57;2.45;;;;;;;12.19;100.00;98683.00;5051173;28;20024;-89
2022/06/18 05:34:42;;;;;;;15.00;2.47;;;;;;;12.24;100.00;98681.19;5057401;28;20024;-88
2022/06/18 05:37:13;;;;;;;13.30;2.53;;;;;;;12.50;100.00;98693.81;5057604;28;20039;-91
2022/06/18 05:39:38;;;;;;;15.88;2.50;;;;;;;12.33;100.00;98698.44;5063341;28;20024;-91
2022/06/18 05:42:04;;;;;;;17.63;2.70;;;;;;;12.33;100.00;98699.34;5076779;28;20119;-91
2022/06/18 05:44:30;;;;;;;11.70;2.30;;;;;;;12.51;100.00;98702.50;5078753;28;20083;-90
2022/06/18 05:46:55;;;;;;;15.32;2.25;;;;;;;12.45;100.00;98698.25;5059367;28;20040;-91
2022/06/18 05:49:58;;;;;;;14.20;2.40;;;;;;;12.35;100.00;98712.38;5063333;28;20114;-90
2022/06/18 05:52:25;;;;;;;18.40;2.90;;;;;;;12.54;100.00;98710.28;5064326;28;20125;-89
2022/06/18 05:54:51;;;;;;;12.88;2.03;;;;;;;12.59;100.00;98698.84;5066429;28;20045;-91
2022/06/18 05:57:18;;;;;;;13.00;2.42;;;;;;;12.62;100.00;98711.91;5073141;28;20037;-90
2022/06/18 05:59:47;;;;;;;15.60;2.45;;;;;;;12.66;100.00;98717.06;5074665;28;20123;-90
2022/06/18 06:02:15;;;;;;;15.45;2.13;;;;;;;11.76;100.00;98724.56;5056386;28;20505;-90
2022/06/18 06:04:42;;;;;;;14.43;2.13;;;;;;;11.18;100.00;98728.81;5049347;28;20459;-90
2022/06/18 06:07:23;;;;;;;16.52;2.72;;;;;;;11.25;100.00;98725.25;5056097;28;20764;-90
2022/06/18 06:12:34;;;;;;;14.05;2.53;;;;;;;11.18;100.00;98713.16;5067583;28;20094;-90
2022/06/18 06:15:01;;;;;;;12.40;2.65;;;;;;;11.21;100.00;98730.53;5052799;28;20025;-90
2022/06/18 06:17:32;;;;;;;11.57;2.53;;;;;;;11.26;100.00;98734.81;5045604;28;20106;-90
2022/06/18 06:20:11;;;;;;;14.88;2.20;;;;;;;11.01;100.00;98728.13;5049699;28;20098;-91
2022/06/18 06:22:37;;;;;;;17.60;2.60;;;;;;;10.99;100.00;98738.59;5058300;28;20059;-91
2022/06/18 06:25:03;;;;;;;16.42;2.40;;;;;;;11.04;100.00;98731.59;5048196;28;20045;-91
2022/06/18 06:27:29;;;;;;;14.77;2.47;;;;;;;11.14;100.00;98752.38;5050423;28;20040;-90
2022/06/18 06:29:54;;;;;;;17.75;2.40;;;;;;;10.88;100.00;98743.94;5059525;28;20021;-91
2022/06/18 06:32:20;;;;;;;15.60;2.42;;;;;;;11.11;100.00;98758.47;5052961;28;20392;-91
2022/06/18 06:34:45;;;;;;;15.25;2.78;;;;;;;11.02;100.00;98766.41;5052278;28;20025;-91
2022/06/18 06:37:11;;;;;;;15.73;2.15;;;;;;;11.05;100.00;98776.81;5071467;28;20089;-91
2022/06/18 06:39:37;;;;;;;10.40;2.40;;;;;;;11.13;100.00;98767.16;5070637;28;20016;-91
2022/06/18 06:42:03;;;;;;;14.43;2.20;;;;;;;11.05;100.00;98764.63;5066775;28;20116;-93
2022/06/18 06:44:35;;;;;;;11.18;2.33;;;;;;;11.24;100.00;98761.81;5064622;28;20029;-93
2022/06/18 06:47:02;;;;;;;13.70;2.55;;;;;;;11.46;100.00;98772.88;5058331;28;20029;-93
2022/06/18 06:49:28;;;;;;;14.73;2.50;;;;;;;11.40;100.00;98767.72;5065619;28;20070;-94
2022/06/18 06:51:55;;;;;;;12.65;2.38;;;;;;;11.34;100.00;98767.78;5065860;28;20052;-94
2022/06/18 06:54:21;;;;;;;17.42;2.45;;;;;;;11.24;100.00;98770.50;5070795;28;20033;-92
2022/06/18 06:59:34;;;;;;;11.27;2.38;;;;;;;11.47;100.00;98779.81;5064650;28;20124;-91
2022/06/18 07:02:03;;;;;;;12.85;2.13;;;;;;;11.51;100.00;98758.00;5056324;28;20035;-92
2022/06/18 07:04:29;;;;;;;16.38;2.30;;;;;;;11.59;100.00;98750.94;5061523;28;20036;-90
2022/06/18 07:06:59;;;;;;;14.45;2.63;;;;;;;11.47;100.00;98732.81;5048070;28;20033;-90
2022/06/18 07:09:24;;;;;;;13.85;2.25;;;;;;;11.59;100.00;98750.06;5054616;28;20032;-90
2022/06/18 07:11:50;;;;;;;13.65;2.45;;;;;;;11.87;100.00;98752.28;5053898;28;20028;-92
2022/06/18 07:14:18;;;;;;;13.68;2.17;;;;;;;12.72;100.00;98744.00;5054250;28;20032;-93
2022/06/18 07:16:52;;;;;;;11.50;2.40;;;;;;;12.58;100.00;98752.09;5051166;28;20521;-92
2022/06/18 07:19:18;;;;;;;15.50;2.50;;;;;;;12.34;100.00;98758.56;5053442;28;20102;-89
2022/06/18 07:21:44;;;;;;;11.38;2.47;;;;;;;12.67;100.00;98766.75;5048736;28;20033;-89
2022/06/18 07:24:10;;;;;;;11.68;2.35;;;;;;;12.63;100.00;98760.69;5056537;28;20028;-89
2022/06/18 07:26:35;;;;;;;13.82;2.30;;;;;;;12.48;100.00;98760.97;5053438;28;20025;-88
2022/06/18 07:29:01;;;;;;;11.93;2.33;;;;;;;12.81;100.00;98753.41;5048362;28;20025;-89
2022/06/18 07:31:31;;;;;;;11.43;2.10;;;;;;;12.55;100.00;98738.19;5051541;28;20059;-89
2022/06/18 07:33:58;;;;;;;13.82;2.17;;;;;;;12.78;100.00;98727.31;5045121;28;20036;-89
2022/06/18 07:36:24;;;;;;;13.85;2.10;;;;;;;12.81;100.00;98716.78;5051033;28;20033;-89
2022/06/18 07:38:50;;;;;;;13.52;2.20;;;;;;;12.75;100.00;98722.16;5052763;28;20055;-90
2022/06/18 07:41:18;;;;;;;15.93;2.20;;;;;;;13.25;100.00;98738.63;5057336;28;20037;-88
2022/06/18 07:43:53;;;;;;;14.02;2.30;;;;;;;13.32;100.00;98728.88;5054647;28;20115;-87
2022/06/18 07:46:19;;;;;;;11.52;1.90;;;;;;;13.35;100.00;98733.16;5047854;28;20644;-90
2022/06/18 07:48:45;;;;;;;11.98;1.90;;;;;;;13.21;100.00;98723.84;5047674;28;20483;-89
2022/06/18 07:51:12;;;;;;;10.27;1.92;;;;;;;13.40;100.00;98702.53;5045540;28;20072;-89
2022/06/18 07:53:38;;;;;;;12.20;1.83;;;;;;;13.55;100.00;98702.22;5054018;28;20036;-90
2022/06/18 07:56:05;;;;;;;11.55;1.90;;;;;;;13.34;100.00;98700.88;5056485;28;20156;-90
2022/06/18 07:58:30;;;;;;;9.93;2.17;;;;;;;13.14;100.00;98706.56;5053553;28;20037;-90
2022/06/18 08:04:29;;;;;;;9.63;1.50;;;;;;;13.19;100.00;98712.53;5025732;28;20063;-90
2022/06/18 08:06:58;;;;;;;11.38;1.77;;;;;;;12.86;100.00;98696.63;5056461;28;20493;-89
2022/06/18 08:09:33;;;;;;;8.48;1.25;;;;;;;12.83;100.00;98696.66;5051111;28;20075;-90
2022/06/18 08:12:01;;;;;;;9.80;1.52;;;;;;;13.04;100.00;98665.72;5056640;28;20028;-89
2022/06/18 08:14:32;;;;;;;7.45;1.17;;;;;;;13.17;100.00;98666.34;5064068;28;20036;-89
2022/06/18 08:16:59;;;;;;;8.48;1.30;;;;;;;13.21;100.00;98654.88;5056049;28;20016;-89
2022/06/18 08:19:24;;;;;;;6.70;1.30;;;;;;;13.37;100.00;98669.41;5068735;28;20052;-89
2022/06/18 08:21:50;;;;;;;9.85;1.60;;;;;;;13.46;100.00;98674.47;5061608;28;20060;-89
2022/06/18 08:24:21;;;;;;;12.98;1.70;;;;;;;13.35;100.00;98691.25;5068083;28;20523;-89
2022/06/18 08:26:48;;;;;;;7.00;1.20;;;;;;;13.23;100.00;98692.41;5064364;28;20040;-89
2022/06/18 08:29:18;;;;;;;9.05;1.63;;;;;;;13.07;100.00;98707.53;5058325;28;20034;-89
2022/06/18 08:31:47;;;;;;;9.90;1.90;;;;;;;12.86;100.00;98716.69;5075272;28;20483;-88
2022/06/18 08:34:13;;;;;;;11.48;1.55;;;;;;;13.10;100.00;98728.44;5055580;28;20039;-89
2022/06/18 08:36:41;;;;;;;7.85;1.48;;;;;;;13.17;100.00;98716.09;5053223;28;20059;-90
2022/06/18 08:39:08;;;;;;;10.02;1.73;;;;;;;13.27;100.00;98707.16;5047193;28;20017;-88
2022/06/18 08:42:04;;;;;;;10.73;1.63;;;;;;;13.27;100.00;98721.09;5052192;28;20057;-87
2022/06/18 08:44:51;;;;;;;9.55;1.73;;;;;;;13.47;100.00;98727.72;5047936;28;20035;-87
2022/06/18 08:47:26;;;;;;;12.38;1.80;;;;;;;13.55;100.00;98723.16;5050125;28;20059;-88
2022/06/18 08:49:58;;;;;;;6.60;1.20;;;;;;;13.51;100.00;98712.78;5051050;28;20527;-91
2022/06/18 08:52:51;;;;;;;9.15;1.50;;;;;;;13.36;100.00;98724.47;5051761;28;20033;-88
2022/06/18 08:55:23;;;;;;;;;;;;;;;13.43;100.00;98737.41;5037263;28;20068;-88
2022/06/18 08:58:11;;;;;;;10.93;1.70;;;;;;;13.57;100.00;98741.47;5046346;28;19917;-87
2022/06/18 09:00:47;;;;;;;8.57;1.60;;;;;;;14.13;100.00;98743.72;5043718;28;20025;-89
2022/06/18 09:03:27;;;;;;;7.38;1.45;;;;;;;14.34;100.00;98732.69;5047579;28;20535;-89
2022/06/18 09:06:22;;;;;;;6.88;1.35;;;;;;;14.70;100.00;98716.09;5045517;28;20056;-89
2022/06/18 09:09:00;;;;;;;11.45;1.60;;;;;;;14.76;100.00;98707.19;5051153;28;20037;-88
2022/06/18 09:11:49;;;;;;;8.15;1.45;;;;;;;14.27;100.00;98704.06;5050866;28;20033;-89
2022/06/18 09:15:06;;;;;;;7.20;1.20;;;;;;;14.26;100.00;98713.66;5055107;28;20102;-89
2022/06/18 09:17:44;;;;;;;10.05;1.50;;;;;;;14.18;100.00;98705.13;4991330;28;20042;-88
2022/06/18 09:20:14;;;;;;;7.88;1.20;;;;;;;14.15;100.00;98707.81;5010266;28;20116;-89
2022/06/18 09:22:46;;;;;;;10.45;1.50;;;;;;;13.98;100.00;98735.31;5003792;28;20221;-89
2022/06/18 09:25:18;;;;;;;10.40;1.55;;;;;;;13.94;100.00;98746.75;5011850;28;20093;-89
2022/06/18 09:28:05;;;;;;;8.70;1.50;;;;;;;14.23;98.98;98744.38;5000893;28;20042;-89
2022/06/18 09:30:37;;;;;;;7.57;1.52;;;;;;;13.95;100.00;98755.50;4994932;28;20041;-88
2022/06/18 09:33:10;;;;;;;7.90;1.20;;;;;;;13.89;100.00;98753.00;5011875;28;20036;-88
2022/06/18 09:38:48;;;;;;;9.02;1.60;;;;;;;13.88;97.33;98739.06;4964506;28;20058;-87
2022/06/18 09:41:24;;;;;;;7.35;1.30;;;;;;;14.11;96.84;98720.16;4963617;28;20085;-89
2022/06/18 09:44:10;;;;;;;9.63;1.70;;;;;;;14.19;99.99;98688.50;4963454;28;20035;-89
2022/06/18 09:46:44;;;;;;;7.88;1.40;;;;;;;13.80;100.00;98694.66;4950311;28;20038;-89
2022/06/18 09:49:10;;;;;;;8.10;1.67;;;;;;;13.95;100.00;98685.56;4977830;28;20046;-89
2022/06/18 09:51:58;;;;;;;7.50;1.60;;;;;;;13.58;100.00;98683.78;4975089;28;20105;-89
2022/06/18 09:54:30;;;;;;;13.07;1.77;;;;;;;13.81;100.00;98687.66;4984599;28;20454;-90
2022/06/18 09:56:59;;;;;;;8.15;1.55;;;;;;;13.48;100.00;98690.16;4980248;28;20145;-90
2022/06/18 09:59:39;;;;;;;9.60;1.63;;;;;;;13.53;100.00;98680.44;4982756;28;20160;-88
2022/06/18 10:02:27;;;;;;;8.65;1.50;;;;;;;13.15;100.00;98705.63;4964147;28;20730;-89
2022/06/18 10:07:46;;;;;;;9.75;1.50;;;;;;;13.20;100.00;98692.47;4981677;28;20570;-89
2022/06/18 10:10:18;;;;;;;12.48;1.80;;;;;;;13.11;100.00;98688.25;4982551;28;20427;-90
2022/06/18 10:12:48;;;;;;;9.68;1.83;;;;;;;13.02;100.00;98673.63;4987422;28;20213;-88
2022/06/18 10:15:16;;;;;;;7.57;1.20;;;;;;;13.00;100.00;98664.94;5006209;28;20064;-88
2022/06/18 10:18:14;;;;;;;11.75;1.88;;;;;;;13.37;100.00;98679.03;5045547;28;20029;-88
2022/06/18 10:21:14;;;;;;;9.00;1.50;;;;;;;13.37;100.00;98673.81;5042375;28;20572;-88
2022/06/18 10:23:47;;;;;;;10.23;2.10;;;;;;;13.50;100.00;98664.78;5062704;28;20836;-88
2022/06/18 10:26:41;;;;;;;12.48;1.98;;;;;;;13.69;100.00;98661.75;5060782;28;20048;-88
2022/06/18 10:29:29;;;;;;;10.63;1.67;;;;;;;13.67;100.00;98653.91;5064043;28;20035;-87
2022/06/18 10:32:18;;;;;;;10.88;1.67;;;;;;;13.79;100.00;98655.38;5063111;28;20078;-87
2022/06/18 10:34:54;;;;;;;11.07;1.52;;;;;;;13.76;100.00;98650.22;5077259;28;20009;-87
2022/06/18 10:38:06;;;;;;;11.95;2.00;;;;;;;14.07;100.00;98641.59;5076962;28;20039;-88
2022/06/18 10:41:01;;;;;;;10.55;1.77;;;;;;;13.86;100.00;98630.72;5059370;28;20040;-90
2022/06/18 10:43:37;;;;;;;9.82;1.88;;;;;;;13.63;100.00;98629.53;5044075;28;20129;-88
2022/06/18 10:46:09;;;;;;;10.75;1.90;;;;;;;13.56;100.00;98627.97;5065819;28;20040;-88
2022/06/18 10:48:36;;;;;;;13.75;1.92;;;;;;;13.83;100.00;98621.22;5072875;28;20056;-89
2022/06/18 10:51:03;;;;;;;13.43;2.38;;;;;;;13.92;100.00;98621.88;5062058;28;20028;-89
2022/06/18 10:57:00;;;;;;;8.52;1.50;;;;;;;13.53;100.00;98630.66;5345087;23;20131;-88
2022/06/18 10:59:35;;;;;;;10.93;1.67;;;;;;;13.59;100.00;98632.28;5006551;28;20412;-88
2022/06/18 11:02:34;;;;;;;12.57;1.80;;;;;;;13.74;100.00;98652.03;5000133;28;20026;-88
2022/06/18 11:05:04;;;;;;;7.90;1.48;;;;;;;13.37;100.00;98653.69;4972397;28;20571;-88
2022/06/18 11:07:33;;;;;;;11.35;1.50;;;;;;;13.43;100.00;98652.69;4991526;28;20144;-86
2022/06/18 11:10:05;;;;;;;11.88;2.08;;;;;;;14.25;100.00;98643.75;4975693;28;20030;-88
2022/06/18 11:12:36;;;;;;;7.30;1.50;;;;;;;14.07;100.00;98652.97;4992763;28;20569;-88
2022/06/18 11:15:03;;;;;;;15.32;2.00;;;;;;;14.15;100.00;98653.63;4996665;28;20193;-88
2022/06/18 11:17:33;;;;;;;12.93;1.70;;;;;;;13.95;100.00;98677.69;4977946;28;20056;-87
2022/06/18 11:20:19;;;;;;;8.98;1.77;;;;;;;13.67;100.00;98672.25;4998840;28;20021;-88
2022/06/18 11:22:53;;;;;;;12.48;1.80;;;;;;;13.87;100.00;98679.66;4976947;28;20034;-87
2022/06/18 11:25:26;;;;;;;14.27;1.95;;;;;;;13.77;100.00;98678.16;5000834;28;20022;-88
2022/06/18 11:27:56;;;;;;;11.43;1.70;;;;;;;14.29;100.00;98671.63;4984778;28;20042;-88
2022/06/18 11:30:33;;;;;;;11.68;1.83;;;;;;;14.18;100.00;98678.91;5005244;28;20429;-87
2022/06/18 11:33:01;;;;;;;9.93;1.65;;;;;;;14.22;100.00;98671.81;5000525;28;20045;-87
2022/06/18 11:35:37;;;;;;;11.73;1.70;;;;;;;14.28;100.00;98672.53;4993835;28;20045;-87
2022/06/18 11:38:06;;;;;;;8.82;1.50;;;;;;;14.84;100.00;98674.56;4987972;28;20060;-88
2022/06/18 11:40:32;;;;;;;13.05;2.05;;;;;;;14.52;100.00;98663.16;4993576;28;20036;-86
2022/06/18 11:43:28;;;;;;;11.65;2.00;;;;;;;14.81;100.00;98668.56;4978135;28;20390;-87
2022/06/18 11:46:01;;;;;;;11.77;1.90;;;;;;;14.54;100.00;98675.38;4971899;28;20065;-87
2022/06/18 11:48:54;;;;;;;12.18;2.05;;;;;;;15.00;100.00;98684.63;4991642;28;20041;-88
2022/06/18 11:51:47;;;;;;;11.20;1.90;;;;;;;14.82;100.00;98693.88;4986436;28;20481;-88
2022/06/18 11:54:33;;;;;;;12.40;2.60;;;;;;;15.06;100.00;98688.84;4987806;28;20029;-96
2022/06/18 11:57:05;;;;;;;17.15;3.38;;;;;;;14.53;100.00;98679.78;4980583;28;20645;-96
2022/06/18 11:59:56;;;;;;;13.77;3.20;;;;;;;14.72;100.00;98679.31;4973502;28;20035;-95
2022/06/18 12:02:57;;;;;;;15.63;2.80;;;;;;;14.24;100.00;98684.00;4971916;28;20146;-93
2022/06/18 12:05:37;;;;;;;12.55;2.20;;;;;;;14.58;100.00;98682.25;5023147;23;20059;-87
2022/06/18 12:08:14;;;;;;;12.63;2.28;;;;;;;14.18;100.00;98684.13;4953588;28;20027;-88
2022/06/18 12:10:48;;;;;;;12.43;2.45;;;;;;;14.07;100.00;98675.69;4948880;29;20062;-87
2022/06/18 12:13:42;;;;;;;11.98;2.33;;;;;;;13.95;100.00;98677.69;4947198;29;20035;-89
2022/06/18 12:16:55;;;;;;;12.27;2.17;;;;;;;14.12;100.00;98679.91;4938400;29;20028;-89